sensor_id;sensor_type;location;lat;lon;timestamp;pressure;altitude;pressure_sealevel;temperature;humidity
10064;BME280;5071;52.360;13.134;2024-01-30T00:00:29;101807.19;;;0.25;99.56
10064;BME280;5071;52.360;13.134;2024-01-30T00:05:33;101805.25;;;0.21;99.23
10064;BME280;5071;52.360;13.134;2024-01-30T00:10:35;101804.22;;;0.17;98.73
10064;BME280;5071;52.360;13.134;2024-01-30T00:15:37;101797.34;;;0.19;99.41
10064;BME280;5071;52.360;13.134;2024-01-30T00:20:41;101791.00;;;0.52;97.39
10064;BME280;5071;52.360;13.134;2024-01-30T00:25:43;101792.06;;;0.18;98.41
10064;BME280;5071;52.360;13.134;2024-01-30T00:30:44;101786.53;;;0.49;98.67
10064;BME280;5071;52.360;13.134;2024-01-30T00:35:48;101780.13;;;0.43;97.32
10064;BME280;5071;52.360;13.134;2024-01-30T00:40:50;101784.75;;;0.11;98.45
10064;BME280;5071;52.360;13.134;2024-01-30T00:45:51;101786.81;;;-0.02;100.00
10064;BME280;5071;52.360;13.134;2024-01-30T00:50:55;101783.19;;;0.14;99.92
10064;BME280;5071;52.360;13.134;2024-01-30T00:55:57;101773.00;;;0.21;99.07
10064;BME280;5071;52.360;13.134;2024-01-30T01:00:59;101771.06;;;0.34;98.73
10064;BME280;5071;52.360;13.134;2024-01-30T01:06:03;101778.22;;;0.77;97.02
10064;BME280;5071;52.360;13.134;2024-01-30T01:11:06;101782.31;;;0.92;96.12
10064;BME280;5071;52.360;13.134;2024-01-30T01:16:07;101781.94;;;0.83;95.82
10064;BME280;5071;52.360;13.134;2024-01-30T01:21:11;101785.13;;;0.96;95.57
10064;BME280;5071;52.360;13.134;2024-01-30T01:26:13;101781.91;;;1.02;94.92
10064;BME280;5071;52.360;13.134;2024-01-30T01:31:15;101784.53;;;1.23;94.50
10064;BME280;5071;52.360;13.134;2024-01-30T01:36:18;101782.38;;;1.13;95.06
10064;BME280;5071;52.360;13.134;2024-01-30T01:41:20;101780.56;;;1.12;94.28
10064;BME280;5071;52.360;13.134;2024-01-30T01:46:22;101776.34;;;0.94;93.97
10064;BME280;5071;52.360;13.134;2024-01-30T01:51:28;101780.13;;;0.82;96.10
10064;BME280;5071;52.360;13.134;2024-01-30T01:56:33;101781.06;;;1.03;95.25
10064;BME280;5071;52.360;13.134;2024-01-30T02:01:36;101781.56;;;0.75;95.28
10064;BME280;5071;52.360;13.134;2024-01-30T02:06:40;101781.84;;;0.62;97.18
10064;BME280;5071;52.360;13.134;2024-01-30T02:11:42;101787.00;;;0.60;97.03
10064;BME280;5071;52.360;13.134;2024-01-30T02:16:44;101776.81;;;0.47;98.02
10064;BME280;5071;52.360;13.134;2024-01-30T02:21:48;101780.00;;;0.40;98.72
10064;BME280;5071;52.360;13.134;2024-01-30T02:26:50;101776.53;;;0.21;99.65
10064;BME280;5071;52.360;13.134;2024-01-30T02:31:52;101780.91;;;0.22;99.59
10064;BME280;5071;52.360;13.134;2024-01-30T02:36:55;101780.81;;;0.19;99.43
10064;BME280;5071;52.360;13.134;2024-01-30T02:41:57;101780.72;;;0.17;100.00
10064;BME280;5071;52.360;13.134;2024-01-30T02:46:59;101771.69;;;0.11;99.82
10064;BME280;5071;52.360;13.134;2024-01-30T02:52:03;101773.06;;;0.03;100.00
10064;BME280;5071;52.360;13.134;2024-01-30T02:57:05;101769.09;;;0.11;100.00
10064;BME280;5071;52.360;13.134;2024-01-30T03:02:07;101765.00;;;-0.02;100.00
10064;BME280;5071;52.360;13.134;2024-01-30T03:07:10;101764.66;;;0.28;100.00
10064;BME280;5071;52.360;13.134;2024-01-30T03:12:12;101758.53;;;0.47;99.03
10064;BME280;5071;52.360;13.134;2024-01-30T03:17:14;101751.41;;;0.23;99.35
10064;BME280;5071;52.360;13.134;2024-01-30T03:22:17;101751.72;;;0.11;99.84
10064;BME280;5071;52.360;13.134;2024-01-30T03:27:19;101745.94;;;-0.19;100.00
10064;BME280;5071;52.360;13.134;2024-01-30T03:32:21;101744.69;;;-0.27;100.00
10064;BME280;5071;52.360;13.134;2024-01-30T03:37:26;101734.94;;;-0.31;100.00
10064;BME280;5071;52.360;13.134;2024-01-30T03:42:28;101752.03;;;-0.01;100.00
10064;BME280;5071;52.360;13.134;2024-01-30T03:47:30;101748.63;;;0.20;100.00
10064;BME280;5071;52.360;13.134;2024-01-30T03:52:33;101744.53;;;0.64;99.25
10064;BME280;5071;52.360;13.134;2024-01-30T03:57:35;101745.59;;;0.89;97.44
10064;BME280;5071;52.360;13.134;2024-01-30T04:02:36;101742.44;;;0.96;97.76
10064;BME280;5071;52.360;13.134;2024-01-30T04:07:40;101742.72;;;0.83;98.24
10064;BME280;5071;52.360;13.134;2024-01-30T04:12:42;101743.47;;;1.00;96.86
10064;BME280;5071;52.360;13.134;2024-01-30T04:17:43;101737.63;;;0.86;98.23
10064;BME280;5071;52.360;13.134;2024-01-30T04:22:47;101740.94;;;0.82;97.51
10064;BME280;5071;52.360;13.134;2024-01-30T04:27:49;101730.91;;;0.71;97.72
10064;BME280;5071;52.360;13.134;2024-01-30T04:32:51;101730.50;;;0.62;98.97
10064;BME280;5071;52.360;13.134;2024-01-30T04:37:54;101729.88;;;0.68;98.92
10064;BME280;5071;52.360;13.134;2024-01-30T04:42:56;101743.63;;;0.64;98.13
10064;BME280;5071;52.360;13.134;2024-01-30T04:47:58;101736.69;;;0.45;100.00
10064;BME280;5071;52.360;13.134;2024-01-30T04:53:01;101741.06;;;0.26;99.42
10064;BME280;5071;52.360;13.134;2024-01-30T04:58:03;101738.34;;;0.23;100.00
10064;BME280;5071;52.360;13.134;2024-01-30T05:03:05;101745.47;;;0.08;100.00
10064;BME280;5071;52.360;13.134;2024-01-30T05:08:09;101741.63;;;-0.18;100.00
10064;BME280;5071;52.360;13.134;2024-01-30T05:13:11;101735.16;;;-0.45;100.00
10064;BME280;5071;52.360;13.134;2024-01-30T05:18:13;101737.31;;;-0.54;100.00
10064;BME280;5071;52.360;13.134;2024-01-30T05:23:16;101726.75;;;-0.57;100.00
10064;BME280;5071;52.360;13.134;2024-01-30T05:28:18;101730.47;;;-0.52;100.00
10064;BME280;5071;52.360;13.134;2024-01-30T05:33:20;101733.56;;;-0.23;100.00
10064;BME280;5071;52.360;13.134;2024-01-30T05:38:24;101730.63;;;-0.11;100.00
10064;BME280;5071;52.360;13.134;2024-01-30T05:43:26;101736.53;;;0.03;100.00
10064;BME280;5071;52.360;13.134;2024-01-30T05:48:28;101727.41;;;0.12;100.00
10064;BME280;5071;52.360;13.134;2024-01-30T05:53:31;101718.56;;;0.28;100.00
10064;BME280;5071;52.360;13.134;2024-01-30T05:58:33;101721.19;;;0.28;100.00
10064;BME280;5071;52.360;13.134;2024-01-30T06:03:35;101717.22;;;0.57;98.97
10064;BME280;5071;52.360;13.134;2024-01-30T06:08:38;101717.03;;;0.33;99.43
10064;BME280;5071;52.360;13.134;2024-01-30T06:13:40;101721.31;;;0.51;98.07
10064;BME280;5071;52.360;13.134;2024-01-30T06:18:42;101719.56;;;0.71;97.31
10064;BME280;5071;52.360;13.134;2024-01-30T06:23:45;101713.13;;;0.84;97.04
10064;BME280;5071;52.360;13.134;2024-01-30T06:28:47;101715.50;;;0.99;96.12
10064;BME280;5071;52.360;13.134;2024-01-30T06:33:49;101711.81;;;0.93;96.47
10064;BME280;5071;52.360;13.134;2024-01-30T06:38:53;101710.91;;;0.93;97.08
10064;BME280;5071;52.360;13.134;2024-01-30T06:43:55;101711.06;;;0.96;96.07
10064;BME280;5071;52.360;13.134;2024-01-30T06:48:57;101704.91;;;0.95;95.89
10064;BME280;5071;52.360;13.134;2024-01-30T06:54:01;101705.69;;;0.93;96.37
10064;BME280;5071;52.360;13.134;2024-01-30T06:59:02;101702.13;;;0.91;97.35
10064;BME280;5071;52.360;13.134;2024-01-30T07:04:04;101700.38;;;1.12;95.76
10064;BME280;5071;52.360;13.134;2024-01-30T07:09:08;101701.47;;;1.17;95.53
10064;BME280;5071;52.360;13.134;2024-01-30T07:14:10;101704.81;;;1.13;95.43
10064;BME280;5071;52.360;13.134;2024-01-30T07:19:12;101706.31;;;1.29;94.89
10064;BME280;5071;52.360;13.134;2024-01-30T07:24:15;101705.44;;;1.29;94.63
10064;BME280;5071;52.360;13.134;2024-01-30T07:29:17;101697.56;;;1.50;93.58
10064;BME280;5071;52.360;13.134;2024-01-30T07:34:19;101705.91;;;1.62;93.41
10064;BME280;5071;52.360;13.134;2024-01-30T07:39:23;101713.88;;;1.65;93.24
10064;BME280;5071;52.360;13.134;2024-01-30T07:44:25;101704.09;;;1.82;92.66
10064;BME280;5071;52.360;13.134;2024-01-30T07:49:27;101706.88;;;1.87;91.87
10064;BME280;5071;52.360;13.134;2024-01-30T07:54:32;101699.72;;;2.05;90.66
10064;BME280;5071;52.360;13.134;2024-01-30T07:59:34;101704.41;;;2.14;90.22
10064;BME280;5071;52.360;13.134;2024-01-30T08:04:36;101694.16;;;2.20;89.89
10064;BME280;5071;52.360;13.134;2024-01-30T08:09:39;101676.50;;;2.39;88.78
10064;BME280;5071;52.360;13.134;2024-01-30T08:14:41;101680.25;;;2.71;87.35
10064;BME280;5071;52.360;13.134;2024-01-30T08:19:43;101682.81;;;2.69;86.59
10064;BME280;5071;52.360;13.134;2024-01-30T08:24:46;101685.66;;;2.76;86.68
10064;BME280;5071;52.360;13.134;2024-01-30T08:29:48;101687.69;;;2.84;86.21
10064;BME280;5071;52.360;13.134;2024-01-30T08:34:50;101687.03;;;2.90;86.59
10064;BME280;5071;52.360;13.134;2024-01-30T08:39:54;101684.16;;;3.09;85.52
10064;BME280;5071;52.360;13.134;2024-01-30T08:44:56;101678.97;;;3.11;85.70
10064;BME280;5071;52.360;13.134;2024-01-30T08:49:57;101683.53;;;3.17;85.06
10064;BME280;5071;52.360;13.134;2024-01-30T08:55:01;101682.22;;;3.29;85.42
10064;BME280;5071;52.360;13.134;2024-01-30T09:00:05;101685.03;;;3.36;84.56
10064;BME280;5071;52.360;13.134;2024-01-30T09:05:07;101687.47;;;3.57;83.35
10064;BME280;5071;52.360;13.134;2024-01-30T09:10:10;101679.03;;;3.67;82.73
10064;BME280;5071;52.360;13.134;2024-01-30T09:15:16;101670.38;;;3.71;82.99
10064;BME280;5071;52.360;13.134;2024-01-30T09:20:18;101679.47;;;3.82;81.29
10064;BME280;5071;52.360;13.134;2024-01-30T09:25:21;101674.69;;;3.98;80.64
10064;BME280;5071;52.360;13.134;2024-01-30T09:30:23;101674.13;;;4.08;79.66
10064;BME280;5071;52.360;13.134;2024-01-30T09:35:25;101661.00;;;4.40;78.10
10064;BME280;5071;52.360;13.134;2024-01-30T09:40:29;101665.66;;;4.50;76.67
10064;BME280;5071;52.360;13.134;2024-01-30T09:45:32;101669.72;;;4.71;75.89
10064;BME280;5071;52.360;13.134;2024-01-30T09:50:35;101674.78;;;4.96;74.99
10064;BME280;5071;52.360;13.134;2024-01-30T09:55:40;101667.81;;;4.98;74.46
10064;BME280;5071;52.360;13.134;2024-01-30T10:00:44;101670.91;;;5.17;73.54
10064;BME280;5071;52.360;13.134;2024-01-30T10:05:50;101670.13;;;5.21;72.80
10064;BME280;5071;52.360;13.134;2024-01-30T10:10:54;101675.47;;;5.24;72.58
10064;BME280;5071;52.360;13.134;2024-01-30T10:15:56;101669.34;;;5.63;72.01
10064;BME280;5071;52.360;13.134;2024-01-30T10:20:58;101666.72;;;5.63;71.45
10064;BME280;5071;52.360;13.134;2024-01-30T10:26:02;101676.91;;;5.87;70.48
10064;BME280;5071;52.360;13.134;2024-01-30T10:31:04;101666.34;;;5.85;69.75
10064;BME280;5071;52.360;13.134;2024-01-30T10:36:08;101663.88;;;5.92;70.47
10064;BME280;5071;52.360;13.134;2024-01-30T10:41:12;101668.00;;;5.80;70.59
10064;BME280;5071;52.360;13.134;2024-01-30T10:46:19;101668.94;;;5.82;70.41
10064;BME280;5071;52.360;13.134;2024-01-30T10:51:22;101659.38;;;5.89;70.34
10064;BME280;5071;52.360;13.134;2024-01-30T10:56:25;101655.81;;;5.85;70.04
10064;BME280;5071;52.360;13.134;2024-01-30T11:01:28;101648.41;;;5.68;71.09
10064;BME280;5071;52.360;13.134;2024-01-30T11:06:30;101652.91;;;5.73;71.80
10064;BME280;5071;52.360;13.134;2024-01-30T11:11:48;101655.06;;;5.91;71.16
10064;BME280;5071;52.360;13.134;2024-01-30T11:16:50;101655.88;;;5.89;71.32
10064;BME280;5071;52.360;13.134;2024-01-30T11:21:52;101647.38;;;5.99;70.96
10064;BME280;5071;52.360;13.134;2024-01-30T11:26:57;101645.00;;;6.13;71.15
10064;BME280;5071;52.360;13.134;2024-01-30T11:32:00;101643.53;;;6.29;70.40
10064;BME280;5071;52.360;13.134;2024-01-30T11:37:03;101642.38;;;6.13;71.78
10064;BME280;5071;52.360;13.134;2024-01-30T11:42:08;101635.16;;;6.48;70.40
10064;BME280;5071;52.360;13.134;2024-01-30T11:47:09;101635.03;;;6.42;71.18
10064;BME280;5071;52.360;13.134;2024-01-30T11:52:11;101618.75;;;6.66;70.23
10064;BME280;5071;52.360;13.134;2024-01-30T11:57:16;101626.44;;;6.52;71.12
10064;BME280;5071;52.360;13.134;2024-01-30T12:02:18;101614.66;;;6.82;70.73
10064;BME280;5071;52.360;13.134;2024-01-30T12:07:20;101610.19;;;6.78;70.06
10064;BME280;5071;52.360;13.134;2024-01-30T12:12:24;101586.38;;;6.75;70.35
10064;BME280;5071;52.360;13.134;2024-01-30T12:17:28;101590.28;;;6.98;70.25
10064;BME280;5071;52.360;13.134;2024-01-30T12:22:31;101592.25;;;7.12;69.86
10064;BME280;5071;52.360;13.134;2024-01-30T12:27:34;101577.34;;;7.17;69.98
10064;BME280;5071;52.360;13.134;2024-01-30T12:32:37;101575.91;;;7.37;68.40
10064;BME280;5071;52.360;13.134;2024-01-30T12:37:39;101564.59;;;7.48;69.55
10064;BME280;5071;52.360;13.134;2024-01-30T12:42:43;101557.84;;;7.71;68.83
10064;BME280;5071;52.360;13.134;2024-01-30T12:47:47;101549.13;;;7.75;68.90
10064;BME280;5071;52.360;13.134;2024-01-30T12:52:49;101546.06;;;8.20;68.06
10064;BME280;5071;52.360;13.134;2024-01-30T12:57:52;101550.22;;;7.94;68.73
10064;BME280;5071;52.360;13.134;2024-01-30T13:02:55;101537.03;;;7.99;68.31
10064;BME280;5071;52.360;13.134;2024-01-30T13:07:56;101544.19;;;8.06;69.47
10064;BME280;5071;52.360;13.134;2024-01-30T13:13:00;101531.91;;;8.11;69.63
10064;BME280;5071;52.360;13.134;2024-01-30T13:18:02;101535.47;;;8.15;69.50
10064;BME280;5071;52.360;13.134;2024-01-30T13:23:04;101516.97;;;8.20;68.82
10064;BME280;5071;52.360;13.134;2024-01-30T13:28:07;101523.25;;;8.28;68.61
10064;BME280;5071;52.360;13.134;2024-01-30T13:33:09;101522.34;;;8.24;68.05
10064;BME280;5071;52.360;13.134;2024-01-30T13:38:11;101520.63;;;8.28;68.15
10064;BME280;5071;52.360;13.134;2024-01-30T13:43:15;101526.72;;;8.24;69.67
10064;BME280;5071;52.360;13.134;2024-01-30T13:48:16;101531.16;;;8.25;69.35
10064;BME280;5071;52.360;13.134;2024-01-30T13:53:18;101523.25;;;8.29;69.72
10064;BME280;5071;52.360;13.134;2024-01-30T13:58:22;101535.53;;;8.23;69.70
10064;BME280;5071;52.360;13.134;2024-01-30T14:03:24;101527.59;;;8.21;70.12
10064;BME280;5071;52.360;13.134;2024-01-30T14:08:25;101530.34;;;8.32;70.76
10064;BME280;5071;52.360;13.134;2024-01-30T14:13:29;101525.88;;;8.29;70.17
10064;BME280;5071;52.360;13.134;2024-01-30T14:18:31;101529.41;;;8.27;71.56
10064;BME280;5071;52.360;13.134;2024-01-30T14:23:33;101519.63;;;8.20;72.35
10064;BME280;5071;52.360;13.134;2024-01-30T14:28:36;101520.63;;;8.28;71.67
10064;BME280;5071;52.360;13.134;2024-01-30T14:33:38;101516.13;;;8.21;72.40
10064;BME280;5071;52.360;13.134;2024-01-30T14:38:41;101510.75;;;8.11;72.91
10064;BME280;5071;52.360;13.134;2024-01-30T14:43:47;101507.19;;;8.09;72.64
10064;BME280;5071;52.360;13.134;2024-01-30T14:48:48;101510.50;;;7.87;74.40
10064;BME280;5071;52.360;13.134;2024-01-30T14:53:50;101513.94;;;7.83;74.79
10064;BME280;5071;52.360;13.134;2024-01-30T14:58:54;101523.53;;;7.73;75.24
10064;BME280;5071;52.360;13.134;2024-01-30T15:03:55;101523.38;;;7.59;75.73
10064;BME280;5071;52.360;13.134;2024-01-30T15:08:57;101530.19;;;7.43;76.76
10064;BME280;5071;52.360;13.134;2024-01-30T15:14:01;101518.63;;;7.33;77.69
10064;BME280;5071;52.360;13.134;2024-01-30T15:19:03;101516.81;;;7.29;77.11
10064;BME280;5071;52.360;13.134;2024-01-30T15:24:05;101530.78;;;7.22;77.60
10064;BME280;5071;52.360;13.134;2024-01-30T15:29:09;101537.50;;;6.98;78.73
10064;BME280;5071;52.360;13.134;2024-01-30T15:34:11;101540.81;;;6.85;78.93
10064;BME280;5071;52.360;13.134;2024-01-30T15:39:14;101544.66;;;6.52;81.15
10064;BME280;5071;52.360;13.134;2024-01-30T15:44:17;101540.88;;;6.36;82.47
10064;BME280;5071;52.360;13.134;2024-01-30T15:49:19;101542.13;;;6.08;83.25
10064;BME280;5071;52.360;13.134;2024-01-30T15:54:21;101543.56;;;5.94;84.14
10064;BME280;5071;52.360;13.134;2024-01-30T15:59:25;101537.25;;;5.85;84.62
10064;BME280;5071;52.360;13.134;2024-01-30T16:04:27;101545.66;;;5.66;85.70
10064;BME280;5071;52.360;13.134;2024-01-30T16:09:29;101539.78;;;5.38;88.07
10064;BME280;5071;52.360;13.134;2024-01-30T16:14:33;101537.75;;;5.25;88.61
10064;BME280;5071;52.360;13.134;2024-01-30T16:19:35;101523.88;;;5.32;89.21
10064;BME280;5071;52.360;13.134;2024-01-30T16:24:37;101541.50;;;5.36;89.59
10064;BME280;5071;52.360;13.134;2024-01-30T16:29:40;101548.34;;;5.69;89.32
10064;BME280;5071;52.360;13.134;2024-01-30T16:34:42;101548.47;;;5.75;87.24
10064;BME280;5071;52.360;13.134;2024-01-30T16:39:44;101545.56;;;5.63;88.73
10064;BME280;5071;52.360;13.134;2024-01-30T16:44:48;101545.75;;;5.71;87.96
10064;BME280;5071;52.360;13.134;2024-01-30T16:49:50;101547.47;;;5.70;88.01
10064;BME280;5071;52.360;13.134;2024-01-30T16:54:52;101552.69;;;5.67;87.91
10064;BME280;5071;52.360;13.134;2024-01-30T16:59:55;101557.84;;;5.62;88.02
10064;BME280;5071;52.360;13.134;2024-01-30T17:04:57;101542.00;;;5.61;88.47
10064;BME280;5071;52.360;13.134;2024-01-30T17:10:12;101536.25;;;5.79;88.20
10064;BME280;5071;52.360;13.134;2024-01-30T17:15:15;101540.88;;;5.91;88.17
10064;BME280;5071;52.360;13.134;2024-01-30T17:20:17;101562.56;;;5.77;88.83
10064;BME280;5071;52.360;13.134;2024-01-30T17:25:19;101578.41;;;5.79;88.88
10064;BME280;5071;52.360;13.134;2024-01-30T17:30:23;101569.38;;;5.68;89.36
10064;BME280;5071;52.360;13.134;2024-01-30T17:35:25;101567.56;;;5.63;89.53
10064;BME280;5071;52.360;13.134;2024-01-30T17:40:27;101573.41;;;5.52;90.12
10064;BME280;5071;52.360;13.134;2024-01-30T17:45:30;101577.94;;;5.57;90.07
10064;BME280;5071;52.360;13.134;2024-01-30T17:50:33;101578.69;;;5.52;90.61
10064;BME280;5071;52.360;13.134;2024-01-30T17:55:35;101579.53;;;5.49;91.52
10064;BME280;5071;52.360;13.134;2024-01-30T18:00:39;101592.81;;;5.54;91.21
10064;BME280;5071;52.360;13.134;2024-01-30T18:05:41;101604.19;;;5.53;91.29
10064;BME280;5071;52.360;13.134;2024-01-30T18:10:43;101606.00;;;5.57;91.18
10064;BME280;5071;52.360;13.134;2024-01-30T18:15:46;101615.06;;;5.70;90.60
10064;BME280;5071;52.360;13.134;2024-01-30T18:20:48;101607.25;;;5.74;91.18
10064;BME280;5071;52.360;13.134;2024-01-30T18:25:50;101623.81;;;5.67;91.93
10064;BME280;5071;52.360;13.134;2024-01-30T18:30:53;101612.91;;;5.93;92.07
10064;BME280;5071;52.360;13.134;2024-01-30T18:35:55;101628.13;;;6.03;91.64
10064;BME280;5071;52.360;13.134;2024-01-30T18:40:57;101625.66;;;6.12;91.45
10064;BME280;5071;52.360;13.134;2024-01-30T18:46:00;101624.31;;;6.33;90.77
10064;BME280;5071;52.360;13.134;2024-01-30T18:51:02;101627.34;;;6.54;90.80
10064;BME280;5071;52.360;13.134;2024-01-30T18:56:05;101624.94;;;6.67;90.28
10064;BME280;5071;52.360;13.134;2024-01-30T19:01:09;101631.31;;;6.81;90.65
10064;BME280;5071;52.360;13.134;2024-01-30T19:06:11;101625.38;;;6.91;90.52
10064;BME280;5071;52.360;13.134;2024-01-30T19:11:19;101625.41;;;6.94;90.45
10064;BME280;5071;52.360;13.134;2024-01-30T19:16:23;101625.47;;;6.97;91.22
10064;BME280;5071;52.360;13.134;2024-01-30T19:21:25;101624.56;;;6.97;90.68
10064;BME280;5071;52.360;13.134;2024-01-30T19:26:27;101629.91;;;7.01;91.41
10064;BME280;5071;52.360;13.134;2024-01-30T19:31:30;101628.13;;;6.99;90.91
10064;BME280;5071;52.360;13.134;2024-01-30T19:36:32;101619.44;;;7.06;91.01
10064;BME280;5071;52.360;13.134;2024-01-30T19:41:34;101622.91;;;7.02;91.88
10064;BME280;5071;52.360;13.134;2024-01-30T19:46:38;101626.50;;;7.07;92.23
10064;BME280;5071;52.360;13.134;2024-01-30T19:51:40;101623.94;;;7.12;91.76
10064;BME280;5071;52.360;13.134;2024-01-30T19:56:42;101626.56;;;7.10;92.65
10064;BME280;5071;52.360;13.134;2024-01-30T20:01:45;101630.09;;;7.12;92.26
10064;BME280;5071;52.360;13.134;2024-01-30T20:06:48;101624.78;;;7.11;91.94
10064;BME280;5071;52.360;13.134;2024-01-30T20:11:50;101628.25;;;7.07;92.30
10064;BME280;5071;52.360;13.134;2024-01-30T20:16:53;101631.88;;;7.12;92.75
10064;BME280;5071;52.360;13.134;2024-01-30T20:21:55;101635.63;;;7.28;92.31
10064;BME280;5071;52.360;13.134;2024-01-30T20:26:57;101630.34;;;7.28;91.96
10064;BME280;5071;52.360;13.134;2024-01-30T20:32:00;101645.31;;;7.27;91.49
10064;BME280;5071;52.360;13.134;2024-01-30T20:37:03;101641.00;;;7.35;91.95
10064;BME280;5071;52.360;13.134;2024-01-30T20:42:05;101649.63;;;7.22;91.74
10064;BME280;5071;52.360;13.134;2024-01-30T20:47:08;101642.63;;;7.26;91.76
10064;BME280;5071;52.360;13.134;2024-01-30T20:52:10;101655.72;;;7.18;92.62
10064;BME280;5071;52.360;13.134;2024-01-30T20:57:12;101652.97;;;7.12;92.29
10064;BME280;5071;52.360;13.134;2024-01-30T21:02:15;101659.34;;;7.25;91.84
10064;BME280;5071;52.360;13.134;2024-01-30T21:07:18;101646.94;;;7.19;92.64
10064;BME280;5071;52.360;13.134;2024-01-30T21:12:23;101656.56;;;7.15;93.04
10064;BME280;5071;52.360;13.134;2024-01-30T21:17:27;101650.28;;;7.09;93.76
10064;BME280;5071;52.360;13.134;2024-01-30T21:22:28;101642.28;;;7.06;92.91
10064;BME280;5071;52.360;13.134;2024-01-30T21:27:30;101642.34;;;7.07;93.00
10064;BME280;5071;52.360;13.134;2024-01-30T21:32:34;101644.94;;;7.06;93.32
10064;BME280;5071;52.360;13.134;2024-01-30T21:37:36;101647.44;;;6.98;93.34
10064;BME280;5071;52.360;13.134;2024-01-30T21:42:38;101651.75;;;6.91;94.07
10064;BME280;5071;52.360;13.134;2024-01-30T21:47:42;101648.38;;;6.98;94.79
10064;BME280;5071;52.360;13.134;2024-01-30T21:52:44;101641.34;;;7.00;94.48
10064;BME280;5071;52.360;13.134;2024-01-30T21:57:46;101631.63;;;6.96;94.99
10064;BME280;5071;52.360;13.134;2024-01-30T22:02:49;101637.69;;;6.92;95.72
10064;BME280;5071;52.360;13.134;2024-01-30T22:07:51;101647.28;;;6.87;95.21
10064;BME280;5071;52.360;13.134;2024-01-30T22:12:53;101653.31;;;6.80;96.77
10064;BME280;5071;52.360;13.134;2024-01-30T22:17:57;101655.84;;;6.75;96.24
10064;BME280;5071;52.360;13.134;2024-01-30T22:22:59;101663.63;;;6.68;96.74
10064;BME280;5071;52.360;13.134;2024-01-30T22:28:01;101682.06;;;6.66;97.44
10064;BME280;5071;52.360;13.134;2024-01-30T22:33:04;101681.00;;;6.56;98.24
10064;BME280;5071;52.360;13.134;2024-01-30T22:38:06;101687.16;;;6.55;97.88
10064;BME280;5071;52.360;13.134;2024-01-30T22:43:08;101700.03;;;6.40;98.83
10064;BME280;5071;52.360;13.134;2024-01-30T22:48:11;101688.38;;;6.27;99.78
10064;BME280;5071;52.360;13.134;2024-01-30T22:53:13;101697.03;;;6.23;99.36
10064;BME280;5071;52.360;13.134;2024-01-30T22:58:15;101694.41;;;6.23;100.00
10064;BME280;5071;52.360;13.134;2024-01-30T23:03:19;101707.53;;;6.20;100.00
10064;BME280;5071;52.360;13.134;2024-01-30T23:08:21;101708.03;;;6.02;100.00
10064;BME280;5071;52.360;13.134;2024-01-30T23:13:23;101711.00;;;5.79;100.00
10064;BME280;5071;52.360;13.134;2024-01-30T23:18:26;101718.50;;;5.62;100.00
10064;BME280;5071;52.360;13.134;2024-01-30T23:23:28;101717.72;;;5.65;100.00
10064;BME280;5071;52.360;13.134;2024-01-30T23:28:31;101719.69;;;5.75;100.00
10064;BME280;5071;52.360;13.134;2024-01-30T23:33:34;101718.94;;;5.81;100.00
10064;BME280;5071;52.360;13.134;2024-01-30T23:38:36;101722.03;;;5.63;100.00
10064;BME280;5071;52.360;13.134;2024-01-30T23:43:38;101723.03;;;5.68;100.00
10064;BME280;5071;52.360;13.134;2024-01-30T23:48:41;101721.53;;;5.41;100.00
10064;BME280;5071;52.360;13.134;2024-01-30T23:53:43;101721.22;;;5.29;100.00
10064;BME280;5071;52.360;13.134;2024-01-30T23:58:45;101733.38;;;5.24;100.00
